sensor_id;sensor_type;location;lat;lon;timestamp;temperature;humidity
18434;DHT22;9344;52.294;13.626;2022-12-29T00:01:21;8.70;99.90
18434;DHT22;9344;52.294;13.626;2022-12-29T00:03:48;7.20;99.90
18434;DHT22;9344;52.294;13.626;2022-12-29T00:06:15;8.70;99.90
18434;DHT22;9344;52.294;13.626;2022-12-29T00:08:41;8.70;99.90
18434;DHT22;9344;52.294;13.626;2022-12-29T00:11:09;8.80;99.90
18434;DHT22;9344;52.294;13.626;2022-12-29T00:13:37;8.70;99.90
18434;DHT22;9344;52.294;13.626;2022-12-29T00:16:22;8.70;99.90
18434;DHT22;9344;52.294;13.626;2022-12-29T00:18:49;8.70;99.90
18434;DHT22;9344;52.294;13.626;2022-12-29T00:21:17;8.80;99.90
18434;DHT22;9344;52.294;13.626;2022-12-29T00:24:02;8.80;99.90
18434;DHT22;9344;52.294;13.626;2022-12-29T00:26:47;8.80;99.90
18434;DHT22;9344;52.294;13.626;2022-12-29T00:29:33;8.80;99.90
18434;DHT22;9344;52.294;13.626;2022-12-29T00:32:17;8.80;99.90
18434;DHT22;9344;52.294;13.626;2022-12-29T00:35:01;8.80;99.90
18434;DHT22;9344;52.294;13.626;2022-12-29T00:37:34;8.80;99.90
18434;DHT22;9344;52.294;13.626;2022-12-29T00:40:15;8.80;99.90
18434;DHT22;9344;52.294;13.626;2022-12-29T00:42:59;8.80;99.90
18434;DHT22;9344;52.294;13.626;2022-12-29T00:45:44;8.80;99.90
18434;DHT22;9344;52.294;13.626;2022-12-29T00:48:11;8.80;99.90
18434;DHT22;9344;52.294;13.626;2022-12-29T00:50:37;8.80;99.90
18434;DHT22;9344;52.294;13.626;2022-12-29T00:53:03;8.80;99.90
18434;DHT22;9344;52.294;13.626;2022-12-29T00:55:30;8.80;99.90
18434;DHT22;9344;52.294;13.626;2022-12-29T00:57:56;8.90;99.90
18434;DHT22;9344;52.294;13.626;2022-12-29T01:00:23;8.90;99.90
18434;DHT22;9344;52.294;13.626;2022-12-29T01:02:51;8.90;99.90
18434;DHT22;9344;52.294;13.626;2022-12-29T01:05:18;8.90;99.90
18434;DHT22;9344;52.294;13.626;2022-12-29T01:07:44;8.90;99.90
18434;DHT22;9344;52.294;13.626;2022-12-29T01:10:11;8.90;99.90
18434;DHT22;9344;52.294;13.626;2022-12-29T01:12:36;9.00;99.90
18434;DHT22;9344;52.294;13.626;2022-12-29T01:15:11;9.00;99.90
18434;DHT22;9344;52.294;13.626;2022-12-29T01:17:38;9.00;99.90
18434;DHT22;9344;52.294;13.626;2022-12-29T01:20:07;9.00;99.90
18434;DHT22;9344;52.294;13.626;2022-12-29T01:22:33;9.00;99.90
18434;DHT22;9344;52.294;13.626;2022-12-29T01:25:00;9.10;99.90
18434;DHT22;9344;52.294;13.626;2022-12-29T01:27:27;9.10;99.90
18434;DHT22;9344;52.294;13.626;2022-12-29T01:29:54;9.10;99.90
18434;DHT22;9344;52.294;13.626;2022-12-29T01:32:20;9.10;99.90
18434;DHT22;9344;52.294;13.626;2022-12-29T01:34:47;9.20;99.90
18434;DHT22;9344;52.294;13.626;2022-12-29T01:37:15;9.20;99.90
18434;DHT22;9344;52.294;13.626;2022-12-29T01:39:41;9.20;99.90
18434;DHT22;9344;52.294;13.626;2022-12-29T01:42:12;9.20;99.90
18434;DHT22;9344;52.294;13.626;2022-12-29T01:44:49;9.20;99.90
18434;DHT22;9344;52.294;13.626;2022-12-29T01:47:25;9.30;99.90
18434;DHT22;9344;52.294;13.626;2022-12-29T01:49:54;9.30;99.90
18434;DHT22;9344;52.294;13.626;2022-12-29T01:52:24;9.30;99.40
18434;DHT22;9344;52.294;13.626;2022-12-29T01:54:53;9.30;97.30
18434;DHT22;9344;52.294;13.626;2022-12-29T01:57:24;9.40;93.10
18434;DHT22;9344;52.294;13.626;2022-12-29T01:59:54;9.40;90.10
18434;DHT22;9344;52.294;13.626;2022-12-29T02:02:23;9.40;73.80
18434;DHT22;9344;52.294;13.626;2022-12-29T02:04:51;9.40;75.90
18434;DHT22;9344;52.294;13.626;2022-12-29T02:07:19;9.40;42.20
18434;DHT22;9344;52.294;13.626;2022-12-29T02:09:48;9.60;15.80
18434;DHT22;9344;52.294;13.626;2022-12-29T02:12:16;9.60;26.90
18434;DHT22;9344;52.294;13.626;2022-12-29T02:14:43;9.60;18.60
18434;DHT22;9344;52.294;13.626;2022-12-29T02:17:20;9.60;15.00
18434;DHT22;9344;52.294;13.626;2022-12-29T02:20:22;9.60;5.00
18434;DHT22;9344;52.294;13.626;2022-12-29T02:23:10;9.60;1.00
18434;DHT22;9344;52.294;13.626;2022-12-29T02:26:00;9.60;1.00
18434;DHT22;9344;52.294;13.626;2022-12-29T02:28:52;9.70;1.00
18434;DHT22;9344;52.294;13.626;2022-12-29T02:31:23;9.70;1.00
18434;DHT22;9344;52.294;13.626;2022-12-29T02:33:59;9.70;1.00
18434;DHT22;9344;52.294;13.626;2022-12-29T02:36:36;9.70;1.00
18434;DHT22;9344;52.294;13.626;2022-12-29T02:39:12;9.80;1.00
18434;DHT22;9344;52.294;13.626;2022-12-29T02:41:49;9.70;1.00
18434;DHT22;9344;52.294;13.626;2022-12-29T02:44:26;9.90;1.00
18434;DHT22;9344;52.294;13.626;2022-12-29T02:47:00;9.90;1.00
18434;DHT22;9344;52.294;13.626;2022-12-29T02:49:34;9.90;1.00
18434;DHT22;9344;52.294;13.626;2022-12-29T02:52:05;9.80;1.00
18434;DHT22;9344;52.294;13.626;2022-12-29T02:54:33;9.90;1.00
18434;DHT22;9344;52.294;13.626;2022-12-29T02:57:11;9.90;1.00
18434;DHT22;9344;52.294;13.626;2022-12-29T02:59:38;9.90;1.00
18434;DHT22;9344;52.294;13.626;2022-12-29T03:02:19;9.90;1.00
18434;DHT22;9344;52.294;13.626;2022-12-29T03:05:00;9.90;1.00
18434;DHT22;9344;52.294;13.626;2022-12-29T03:07:39;9.90;1.00
18434;DHT22;9344;52.294;13.626;2022-12-29T03:10:17;10.00;1.00
18434;DHT22;9344;52.294;13.626;2022-12-29T03:12:48;10.00;1.00
18434;DHT22;9344;52.294;13.626;2022-12-29T03:15:34;10.00;1.00
18434;DHT22;9344;52.294;13.626;2022-12-29T03:18:24;10.10;1.00
18434;DHT22;9344;52.294;13.626;2022-12-29T03:20:57;10.10;1.00
18434;DHT22;9344;52.294;13.626;2022-12-29T03:23:27;10.10;1.00
18434;DHT22;9344;52.294;13.626;2022-12-29T03:25:57;10.10;1.00
18434;DHT22;9344;52.294;13.626;2022-12-29T03:28:28;10.10;1.00
18434;DHT22;9344;52.294;13.626;2022-12-29T03:30:57;10.20;1.00
18434;DHT22;9344;52.294;13.626;2022-12-29T03:33:28;10.20;1.00
18434;DHT22;9344;52.294;13.626;2022-12-29T03:35:59;10.10;1.00
18434;DHT22;9344;52.294;13.626;2022-12-29T03:38:33;10.20;1.00
18434;DHT22;9344;52.294;13.626;2022-12-29T03:41:04;10.20;1.00
18434;DHT22;9344;52.294;13.626;2022-12-29T03:43:32;10.20;1.00
18434;DHT22;9344;52.294;13.626;2022-12-29T03:45:59;10.20;1.00
18434;DHT22;9344;52.294;13.626;2022-12-29T03:48:27;10.20;1.00
18434;DHT22;9344;52.294;13.626;2022-12-29T03:50:53;10.20;1.00
18434;DHT22;9344;52.294;13.626;2022-12-29T03:53:20;10.20;1.00
18434;DHT22;9344;52.294;13.626;2022-12-29T03:55:46;10.20;1.00
18434;DHT22;9344;52.294;13.626;2022-12-29T03:58:13;10.20;1.00
18434;DHT22;9344;52.294;13.626;2022-12-29T04:00:39;10.20;1.00
18434;DHT22;9344;52.294;13.626;2022-12-29T04:03:06;10.30;1.00
18434;DHT22;9344;52.294;13.626;2022-12-29T04:05:34;10.30;1.00
18434;DHT22;9344;52.294;13.626;2022-12-29T04:08:00;10.30;1.00
18434;DHT22;9344;52.294;13.626;2022-12-29T04:10:27;10.30;1.00
18434;DHT22;9344;52.294;13.626;2022-12-29T04:12:53;10.30;1.00
18434;DHT22;9344;52.294;13.626;2022-12-29T04:15:20;10.30;1.00
18434;DHT22;9344;52.294;13.626;2022-12-29T04:17:46;10.40;1.00
18434;DHT22;9344;52.294;13.626;2022-12-29T04:20:13;10.40;1.00
18434;DHT22;9344;52.294;13.626;2022-12-29T04:23:00;10.40;1.00
18434;DHT22;9344;52.294;13.626;2022-12-29T04:25:26;10.20;1.00
18434;DHT22;9344;52.294;13.626;2022-12-29T04:27:53;10.40;1.00
18434;DHT22;9344;52.294;13.626;2022-12-29T04:30:20;10.40;1.00
18434;DHT22;9344;52.294;13.626;2022-12-29T04:32:46;10.40;1.00
18434;DHT22;9344;52.294;13.626;2022-12-29T04:35:13;10.40;1.00
18434;DHT22;9344;52.294;13.626;2022-12-29T04:37:39;10.40;1.00
18434;DHT22;9344;52.294;13.626;2022-12-29T04:40:09;10.50;1.00
18434;DHT22;9344;52.294;13.626;2022-12-29T04:42:35;10.40;1.00
18434;DHT22;9344;52.294;13.626;2022-12-29T04:45:02;10.50;1.00
18434;DHT22;9344;52.294;13.626;2022-12-29T04:47:29;10.50;1.00
18434;DHT22;9344;52.294;13.626;2022-12-29T04:49:55;10.50;1.00
18434;DHT22;9344;52.294;13.626;2022-12-29T04:52:22;10.50;1.00
18434;DHT22;9344;52.294;13.626;2022-12-29T04:54:48;10.60;1.00
18434;DHT22;9344;52.294;13.626;2022-12-29T04:57:16;10.50;1.00
18434;DHT22;9344;52.294;13.626;2022-12-29T04:59:43;10.50;1.00
18434;DHT22;9344;52.294;13.626;2022-12-29T05:02:09;10.50;1.00
18434;DHT22;9344;52.294;13.626;2022-12-29T05:04:36;10.50;1.00
18434;DHT22;9344;52.294;13.626;2022-12-29T05:07:02;10.50;1.00
18434;DHT22;9344;52.294;13.626;2022-12-29T05:09:29;10.50;1.00
18434;DHT22;9344;52.294;13.626;2022-12-29T05:11:56;10.60;1.00
18434;DHT22;9344;52.294;13.626;2022-12-29T05:14:24;10.60;1.00
18434;DHT22;9344;52.294;13.626;2022-12-29T05:16:50;10.60;1.00
18434;DHT22;9344;52.294;13.626;2022-12-29T05:19:17;10.60;1.00
18434;DHT22;9344;52.294;13.626;2022-12-29T05:21:43;10.60;1.00
18434;DHT22;9344;52.294;13.626;2022-12-29T05:24:10;10.60;1.00
18434;DHT22;9344;52.294;13.626;2022-12-29T05:26:36;10.60;1.00
18434;DHT22;9344;52.294;13.626;2022-12-29T05:29:03;10.60;1.00
18434;DHT22;9344;52.294;13.626;2022-12-29T05:31:31;10.50;1.00
18434;DHT22;9344;52.294;13.626;2022-12-29T05:33:57;10.50;1.00
18434;DHT22;9344;52.294;13.626;2022-12-29T05:36:24;10.50;1.00
18434;DHT22;9344;52.294;13.626;2022-12-29T05:38:50;10.60;1.00
18434;DHT22;9344;52.294;13.626;2022-12-29T05:41:17;10.60;1.00
18434;DHT22;9344;52.294;13.626;2022-12-29T05:43:44;10.50;1.00
18434;DHT22;9344;52.294;13.626;2022-12-29T05:46:10;10.50;1.00
18434;DHT22;9344;52.294;13.626;2022-12-29T05:48:38;10.50;1.00
18434;DHT22;9344;52.294;13.626;2022-12-29T05:51:05;10.50;4.20
18434;DHT22;9344;52.294;13.626;2022-12-29T05:53:31;10.50;1.00
18434;DHT22;9344;52.294;13.626;2022-12-29T05:55:58;10.50;3.30
18434;DHT22;9344;52.294;13.626;2022-12-29T05:58:24;10.50;1.00
18434;DHT22;9344;52.294;13.626;2022-12-29T06:00:51;10.50;12.00
18434;DHT22;9344;52.294;13.626;2022-12-29T06:03:18;10.50;15.80
18434;DHT22;9344;52.294;13.626;2022-12-29T06:05:46;10.50;8.00
18434;DHT22;9344;52.294;13.626;2022-12-29T06:08:15;10.50;7.80
18434;DHT22;9344;52.294;13.626;2022-12-29T06:10:42;10.50;15.00
18434;DHT22;9344;52.294;13.626;2022-12-29T06:13:08;10.50;22.60
18434;DHT22;9344;52.294;13.626;2022-12-29T06:15:35;10.50;21.30
18434;DHT22;9344;52.294;13.626;2022-12-29T06:18:01;10.50;32.40
18434;DHT22;9344;52.294;13.626;2022-12-29T06:20:28;10.50;31.10
18434;DHT22;9344;52.294;13.626;2022-12-29T06:22:56;10.50;39.80
18434;DHT22;9344;52.294;13.626;2022-12-29T06:25:23;10.60;31.40
18434;DHT22;9344;52.294;13.626;2022-12-29T06:27:49;10.50;22.70
18434;DHT22;9344;52.294;13.626;2022-12-29T06:30:16;10.60;29.20
18434;DHT22;9344;52.294;13.626;2022-12-29T06:32:43;10.60;17.30
18434;DHT22;9344;52.294;13.626;2022-12-29T06:35:11;10.60;23.80
18434;DHT22;9344;52.294;13.626;2022-12-29T06:37:37;10.60;25.10
18434;DHT22;9344;52.294;13.626;2022-12-29T06:40:06;10.60;27.50
18434;DHT22;9344;52.294;13.626;2022-12-29T06:42:33;10.60;29.70
18434;DHT22;9344;52.294;13.626;2022-12-29T06:45:00;10.60;31.10
18434;DHT22;9344;52.294;13.626;2022-12-29T06:47:26;10.60;40.10
18434;DHT22;9344;52.294;13.626;2022-12-29T06:49:53;10.60;38.00
18434;DHT22;9344;52.294;13.626;2022-12-29T06:52:20;10.60;45.10
18434;DHT22;9344;52.294;13.626;2022-12-29T06:54:49;10.60;50.70
18434;DHT22;9344;52.294;13.626;2022-12-29T06:57:16;10.60;51.60
18434;DHT22;9344;52.294;13.626;2022-12-29T06:59:43;10.60;57.60
18434;DHT22;9344;52.294;13.626;2022-12-29T07:02:10;10.60;62.00
18434;DHT22;9344;52.294;13.626;2022-12-29T07:04:37;10.60;65.20
18434;DHT22;9344;52.294;13.626;2022-12-29T07:07:03;10.60;71.00
18434;DHT22;9344;52.294;13.626;2022-12-29T07:09:30;10.60;79.30
18434;DHT22;9344;52.294;13.626;2022-12-29T07:11:56;10.60;81.90
18434;DHT22;9344;52.294;13.626;2022-12-29T07:14:24;10.60;82.40
18434;DHT22;9344;52.294;13.626;2022-12-29T07:16:51;10.60;95.00
18434;DHT22;9344;52.294;13.626;2022-12-29T07:19:17;10.60;96.50
18434;DHT22;9344;52.294;13.626;2022-12-29T07:21:44;10.60;96.50
18434;DHT22;9344;52.294;13.626;2022-12-29T07:24:11;10.60;99.90
18434;DHT22;9344;52.294;13.626;2022-12-29T07:26:37;10.60;99.90
18434;DHT22;9344;52.294;13.626;2022-12-29T07:29:04;10.60;99.90
18434;DHT22;9344;52.294;13.626;2022-12-29T07:31:32;10.60;99.90
18434;DHT22;9344;52.294;13.626;2022-12-29T07:33:58;10.70;99.90
18434;DHT22;9344;52.294;13.626;2022-12-29T07:36:25;10.70;99.90
18434;DHT22;9344;52.294;13.626;2022-12-29T07:38:51;10.70;99.90
18434;DHT22;9344;52.294;13.626;2022-12-29T07:41:18;10.80;99.90
18434;DHT22;9344;52.294;13.626;2022-12-29T07:43:46;10.80;99.90
18434;DHT22;9344;52.294;13.626;2022-12-29T07:46:13;10.80;99.90
18434;DHT22;9344;52.294;13.626;2022-12-29T07:48:41;10.90;99.90
18434;DHT22;9344;52.294;13.626;2022-12-29T07:51:08;10.90;99.90
18434;DHT22;9344;52.294;13.626;2022-12-29T07:53:35;10.80;99.90
18434;DHT22;9344;52.294;13.626;2022-12-29T07:56:01;10.80;99.80
18434;DHT22;9344;52.294;13.626;2022-12-29T07:58:28;10.80;99.90
18434;DHT22;9344;52.294;13.626;2022-12-29T08:00:55;10.90;96.70
18434;DHT22;9344;52.294;13.626;2022-12-29T08:03:22;10.80;99.20
18434;DHT22;9344;52.294;13.626;2022-12-29T08:05:51;10.80;91.80
18434;DHT22;9344;52.294;13.626;2022-12-29T08:08:18;10.90;91.80
18434;DHT22;9344;52.294;13.626;2022-12-29T08:10:45;10.90;90.90
18434;DHT22;9344;52.294;13.626;2022-12-29T08:13:11;10.90;91.80
18434;DHT22;9344;52.294;13.626;2022-12-29T08:15:38;10.90;91.60
18434;DHT22;9344;52.294;13.626;2022-12-29T08:18:05;11.00;92.70
18434;DHT22;9344;52.294;13.626;2022-12-29T08:20:32;10.90;92.50
18434;DHT22;9344;52.294;13.626;2022-12-29T08:23:00;11.00;89.00
18434;DHT22;9344;52.294;13.626;2022-12-29T08:25:26;11.20;84.20
18434;DHT22;9344;52.294;13.626;2022-12-29T08:27:53;11.00;86.60
18434;DHT22;9344;52.294;13.626;2022-12-29T08:30:19;11.00;88.30
18434;DHT22;9344;52.294;13.626;2022-12-29T08:32:46;11.10;76.60
18434;DHT22;9344;52.294;13.626;2022-12-29T08:35:12;11.10;73.00
18434;DHT22;9344;52.294;13.626;2022-12-29T08:37:39;11.20;72.60
18434;DHT22;9344;52.294;13.626;2022-12-29T08:40:08;11.20;72.60
18434;DHT22;9344;52.294;13.626;2022-12-29T08:42:35;11.20;54.30
18434;DHT22;9344;52.294;13.626;2022-12-29T08:45:02;11.20;47.70
18434;DHT22;9344;52.294;13.626;2022-12-29T08:47:29;11.20;59.90
18434;DHT22;9344;52.294;13.626;2022-12-29T08:49:55;11.30;53.60
18434;DHT22;9344;52.294;13.626;2022-12-29T08:52:22;11.30;56.20
18434;DHT22;9344;52.294;13.626;2022-12-29T08:54:49;11.30;48.60
18434;DHT22;9344;52.294;13.626;2022-12-29T08:57:17;11.30;54.40
18434;DHT22;9344;52.294;13.626;2022-12-29T08:59:43;11.40;47.20
18434;DHT22;9344;52.294;13.626;2022-12-29T09:02:11;11.40;50.00
18434;DHT22;9344;52.294;13.626;2022-12-29T09:04:37;11.40;47.00
18434;DHT22;9344;52.294;13.626;2022-12-29T09:07:04;11.50;39.60
18434;DHT22;9344;52.294;13.626;2022-12-29T09:09:31;11.40;31.80
18434;DHT22;9344;52.294;13.626;2022-12-29T09:11:58;11.60;28.10
18434;DHT22;9344;52.294;13.626;2022-12-29T09:14:25;11.60;11.10
18434;DHT22;9344;52.294;13.626;2022-12-29T09:16:52;10.10;9.30
18434;DHT22;9344;52.294;13.626;2022-12-29T09:19:37;11.80;1.00
18434;DHT22;9344;52.294;13.626;2022-12-29T09:22:03;11.80;1.00
18434;DHT22;9344;52.294;13.626;2022-12-29T09:24:30;11.90;1.00
18434;DHT22;9344;52.294;13.626;2022-12-29T09:26:57;11.90;1.00
18434;DHT22;9344;52.294;13.626;2022-12-29T09:29:23;12.00;1.00
18434;DHT22;9344;52.294;13.626;2022-12-29T09:31:51;12.10;1.00
18434;DHT22;9344;52.294;13.626;2022-12-29T09:34:17;12.10;1.00
18434;DHT22;9344;52.294;13.626;2022-12-29T09:36:44;12.10;1.00
18434;DHT22;9344;52.294;13.626;2022-12-29T09:39:12;12.20;1.00
18434;DHT22;9344;52.294;13.626;2022-12-29T09:41:42;12.30;1.00
18434;DHT22;9344;52.294;13.626;2022-12-29T09:44:17;12.20;1.00
18434;DHT22;9344;52.294;13.626;2022-12-29T09:46:49;12.30;1.00
18434;DHT22;9344;52.294;13.626;2022-12-29T09:49:24;12.40;1.00
18434;DHT22;9344;52.294;13.626;2022-12-29T09:51:54;12.50;1.00
18434;DHT22;9344;52.294;13.626;2022-12-29T09:54:34;12.50;1.00
18434;DHT22;9344;52.294;13.626;2022-12-29T09:57:02;12.60;1.00
18434;DHT22;9344;52.294;13.626;2022-12-29T09:59:38;12.50;1.00
18434;DHT22;9344;52.294;13.626;2022-12-29T10:02:16;12.50;1.00
18434;DHT22;9344;52.294;13.626;2022-12-29T10:04:48;12.60;1.00
18434;DHT22;9344;52.294;13.626;2022-12-29T10:07:24;12.60;1.00
18434;DHT22;9344;52.294;13.626;2022-12-29T10:09:58;12.60;1.00
18434;DHT22;9344;52.294;13.626;2022-12-29T10:12:34;12.60;1.00
18434;DHT22;9344;52.294;13.626;2022-12-29T10:15:12;12.70;1.00
18434;DHT22;9344;52.294;13.626;2022-12-29T10:17:47;12.70;1.00
18434;DHT22;9344;52.294;13.626;2022-12-29T10:20:27;12.70;1.00
18434;DHT22;9344;52.294;13.626;2022-12-29T10:23:06;12.70;1.00
18434;DHT22;9344;52.294;13.626;2022-12-29T10:25:40;12.70;1.00
18434;DHT22;9344;52.294;13.626;2022-12-29T10:28:17;12.70;1.00
18434;DHT22;9344;52.294;13.626;2022-12-29T10:30:46;12.70;1.00
18434;DHT22;9344;52.294;13.626;2022-12-29T10:33:17;12.80;1.00
18434;DHT22;9344;52.294;13.626;2022-12-29T10:35:47;12.80;1.00
18434;DHT22;9344;52.294;13.626;2022-12-29T10:38:20;12.90;1.00
18434;DHT22;9344;52.294;13.626;2022-12-29T10:40:53;12.90;1.00
18434;DHT22;9344;52.294;13.626;2022-12-29T10:43:25;13.00;1.00
18434;DHT22;9344;52.294;13.626;2022-12-29T10:45:53;13.00;1.00
18434;DHT22;9344;52.294;13.626;2022-12-29T10:48:22;13.00;1.00
18434;DHT22;9344;52.294;13.626;2022-12-29T10:50:53;13.10;1.00
18434;DHT22;9344;52.294;13.626;2022-12-29T10:53:24;13.10;1.00
18434;DHT22;9344;52.294;13.626;2022-12-29T10:55:52;13.10;1.00
18434;DHT22;9344;52.294;13.626;2022-12-29T10:58:20;13.10;1.00
18434;DHT22;9344;52.294;13.626;2022-12-29T11:00:51;13.20;1.00
18434;DHT22;9344;52.294;13.626;2022-12-29T11:03:41;13.20;1.00
18434;DHT22;9344;52.294;13.626;2022-12-29T11:06:15;13.10;1.00
18434;DHT22;9344;52.294;13.626;2022-12-29T11:08:50;13.10;1.00
18434;DHT22;9344;52.294;13.626;2022-12-29T11:11:22;13.10;1.00
18434;DHT22;9344;52.294;13.626;2022-12-29T11:13:56;13.10;1.00
18434;DHT22;9344;52.294;13.626;2022-12-29T11:16:31;13.10;1.00
18434;DHT22;9344;52.294;13.626;2022-12-29T11:18:59;13.00;1.00
18434;DHT22;9344;52.294;13.626;2022-12-29T11:21:32;12.90;1.00
18434;DHT22;9344;52.294;13.626;2022-12-29T11:24:01;12.80;1.00
18434;DHT22;9344;52.294;13.626;2022-12-29T11:26:28;12.80;1.00
18434;DHT22;9344;52.294;13.626;2022-12-29T11:29:20;12.70;28.30
18434;DHT22;9344;52.294;13.626;2022-12-29T11:31:48;12.70;63.20
18434;DHT22;9344;52.294;13.626;2022-12-29T11:34:18;12.70;33.50
18434;DHT22;9344;52.294;13.626;2022-12-29T11:36:46;12.70;11.80
18434;DHT22;9344;52.294;13.626;2022-12-29T11:39:36;12.80;11.10
18434;DHT22;9344;52.294;13.626;2022-12-29T11:42:04;12.90;1.00
18434;DHT22;9344;52.294;13.626;2022-12-29T11:44:36;13.00;1.00
18434;DHT22;9344;52.294;13.626;2022-12-29T11:47:05;13.10;1.00
18434;DHT22;9344;52.294;13.626;2022-12-29T11:49:35;13.10;1.00
18434;DHT22;9344;52.294;13.626;2022-12-29T11:52:03;13.10;1.00
18434;DHT22;9344;52.294;13.626;2022-12-29T11:54:32;13.10;1.00
18434;DHT22;9344;52.294;13.626;2022-12-29T11:57:09;13.10;1.00
18434;DHT22;9344;52.294;13.626;2022-12-29T11:59:41;13.10;1.00
18434;DHT22;9344;52.294;13.626;2022-12-29T12:02:40;13.10;1.00
18434;DHT22;9344;52.294;13.626;2022-12-29T12:05:22;13.20;1.00
18434;DHT22;9344;52.294;13.626;2022-12-29T12:07:55;13.20;1.00
18434;DHT22;9344;52.294;13.626;2022-12-29T12:10:26;13.20;1.00
18434;DHT22;9344;52.294;13.626;2022-12-29T12:13:01;13.20;1.00
18434;DHT22;9344;52.294;13.626;2022-12-29T12:15:34;13.10;1.00
18434;DHT22;9344;52.294;13.626;2022-12-29T12:18:08;13.20;1.00
18434;DHT22;9344;52.294;13.626;2022-12-29T12:20:43;13.10;1.00
18434;DHT22;9344;52.294;13.626;2022-12-29T12:23:22;13.20;1.00
18434;DHT22;9344;52.294;13.626;2022-12-29T12:25:57;13.20;1.00
18434;DHT22;9344;52.294;13.626;2022-12-29T12:28:32;13.20;1.00
18434;DHT22;9344;52.294;13.626;2022-12-29T12:31:01;13.20;1.00
18434;DHT22;9344;52.294;13.626;2022-12-29T12:33:32;13.20;1.00
18434;DHT22;9344;52.294;13.626;2022-12-29T12:36:18;13.20;1.00
18434;DHT22;9344;52.294;13.626;2022-12-29T12:38:55;13.20;1.00
18434;DHT22;9344;52.294;13.626;2022-12-29T12:41:34;13.10;1.00
18434;DHT22;9344;52.294;13.626;2022-12-29T12:44:06;12.70;92.00
18434;DHT22;9344;52.294;13.626;2022-12-29T12:47:05;12.60;96.50
18434;DHT22;9344;52.294;13.626;2022-12-29T12:52:48;12.50;99.90
18434;DHT22;9344;52.294;13.626;2022-12-29T12:55:35;12.40;99.90
18434;DHT22;9344;52.294;13.626;2022-12-29T12:58:11;12.20;99.90
18434;DHT22;9344;52.294;13.626;2022-12-29T13:00:47;12.20;99.90
18434;DHT22;9344;52.294;13.626;2022-12-29T13:03:29;12.20;99.90
18434;DHT22;9344;52.294;13.626;2022-12-29T13:06:11;12.20;99.90
18434;DHT22;9344;52.294;13.626;2022-12-29T13:09:06;12.20;99.90
18434;DHT22;9344;52.294;13.626;2022-12-29T13:11:43;12.20;99.90
18434;DHT22;9344;52.294;13.626;2022-12-29T13:14:22;12.10;99.90
18434;DHT22;9344;52.294;13.626;2022-12-29T13:16:57;12.10;99.90
18434;DHT22;9344;52.294;13.626;2022-12-29T13:19:32;12.10;99.90
18434;DHT22;9344;52.294;13.626;2022-12-29T13:22:07;12.10;99.90
18434;DHT22;9344;52.294;13.626;2022-12-29T13:24:43;12.10;99.90
18434;DHT22;9344;52.294;13.626;2022-12-29T13:27:19;12.20;99.90
18434;DHT22;9344;52.294;13.626;2022-12-29T13:29:56;12.20;99.90
18434;DHT22;9344;52.294;13.626;2022-12-29T13:32:35;12.20;99.90
18434;DHT22;9344;52.294;13.626;2022-12-29T13:35:16;12.10;99.90
18434;DHT22;9344;52.294;13.626;2022-12-29T13:37:49;12.20;99.90
18434;DHT22;9344;52.294;13.626;2022-12-29T13:40:21;12.20;99.90
18434;DHT22;9344;52.294;13.626;2022-12-29T13:42:50;12.20;99.90
18434;DHT22;9344;52.294;13.626;2022-12-29T13:45:20;12.20;99.90
18434;DHT22;9344;52.294;13.626;2022-12-29T13:47:51;12.20;99.90
18434;DHT22;9344;52.294;13.626;2022-12-29T13:50:23;12.20;99.90
18434;DHT22;9344;52.294;13.626;2022-12-29T13:52:55;12.20;99.90
18434;DHT22;9344;52.294;13.626;2022-12-29T13:55:31;12.10;99.90
18434;DHT22;9344;52.294;13.626;2022-12-29T13:58:05;12.20;99.90
18434;DHT22;9344;52.294;13.626;2022-12-29T14:00:42;12.10;99.90
18434;DHT22;9344;52.294;13.626;2022-12-29T14:03:27;12.10;99.90
18434;DHT22;9344;52.294;13.626;2022-12-29T14:06:12;12.10;99.90
18434;DHT22;9344;52.294;13.626;2022-12-29T14:08:40;12.10;99.90
18434;DHT22;9344;52.294;13.626;2022-12-29T14:11:09;12.10;99.90
18434;DHT22;9344;52.294;13.626;2022-12-29T14:13:40;12.10;99.90
18434;DHT22;9344;52.294;13.626;2022-12-29T14:16:10;12.20;88.20
18434;DHT22;9344;52.294;13.626;2022-12-29T14:18:47;12.20;51.30
18434;DHT22;9344;52.294;13.626;2022-12-29T14:21:19;12.20;31.40
18434;DHT22;9344;52.294;13.626;2022-12-29T14:23:49;12.30;1.00
18434;DHT22;9344;52.294;13.626;2022-12-29T14:26:18;12.40;1.00
18434;DHT22;9344;52.294;13.626;2022-12-29T14:29:16;12.30;1.00
18434;DHT22;9344;52.294;13.626;2022-12-29T14:31:43;12.40;1.00
18434;DHT22;9344;52.294;13.626;2022-12-29T14:34:30;12.40;1.00
18434;DHT22;9344;52.294;13.626;2022-12-29T14:36:58;12.40;1.00
18434;DHT22;9344;52.294;13.626;2022-12-29T14:39:32;12.50;1.00
18434;DHT22;9344;52.294;13.626;2022-12-29T14:42:00;12.50;1.00
18434;DHT22;9344;52.294;13.626;2022-12-29T14:44:28;12.50;1.00
18434;DHT22;9344;52.294;13.626;2022-12-29T14:46:57;12.50;1.00
18434;DHT22;9344;52.294;13.626;2022-12-29T14:49:26;12.50;1.00
18434;DHT22;9344;52.294;13.626;2022-12-29T14:52:04;12.50;1.00
18434;DHT22;9344;52.294;13.626;2022-12-29T14:54:43;12.50;1.00
18434;DHT22;9344;52.294;13.626;2022-12-29T14:57:15;12.40;1.00
18434;DHT22;9344;52.294;13.626;2022-12-29T14:59:47;12.50;1.00
18434;DHT22;9344;52.294;13.626;2022-12-29T15:02:16;12.50;1.00
18434;DHT22;9344;52.294;13.626;2022-12-29T15:04:46;12.50;1.00
18434;DHT22;9344;52.294;13.626;2022-12-29T15:07:13;12.50;1.00
18434;DHT22;9344;52.294;13.626;2022-12-29T15:09:44;12.50;1.00
18434;DHT22;9344;52.294;13.626;2022-12-29T15:12:21;12.40;1.00
18434;DHT22;9344;52.294;13.626;2022-12-29T15:14:52;12.50;1.00
18434;DHT22;9344;52.294;13.626;2022-12-29T15:17:24;12.50;1.00
18434;DHT22;9344;52.294;13.626;2022-12-29T15:19:52;12.40;1.00
18434;DHT22;9344;52.294;13.626;2022-12-29T15:22:19;12.40;99.90
18434;DHT22;9344;52.294;13.626;2022-12-29T15:24:45;12.40;1.00
18434;DHT22;9344;52.294;13.626;2022-12-29T15:27:14;12.40;1.00
18434;DHT22;9344;52.294;13.626;2022-12-29T15:29:43;12.40;1.00
18434;DHT22;9344;52.294;13.626;2022-12-29T15:32:20;12.40;1.00
18434;DHT22;9344;52.294;13.626;2022-12-29T15:34:49;12.40;1.00
18434;DHT22;9344;52.294;13.626;2022-12-29T15:37:18;12.40;1.00
18434;DHT22;9344;52.294;13.626;2022-12-29T15:39:45;12.40;1.00
18434;DHT22;9344;52.294;13.626;2022-12-29T15:42:32;12.40;1.00
18434;DHT22;9344;52.294;13.626;2022-12-29T15:45:04;12.30;1.00
18434;DHT22;9344;52.294;13.626;2022-12-29T15:47:32;12.30;1.00
18434;DHT22;9344;52.294;13.626;2022-12-29T15:50:04;12.30;1.00
18434;DHT22;9344;52.294;13.626;2022-12-29T15:52:32;12.20;1.00
18434;DHT22;9344;52.294;13.626;2022-12-29T15:55:00;12.20;1.00
18434;DHT22;9344;52.294;13.626;2022-12-29T15:57:29;12.20;1.00
18434;DHT22;9344;52.294;13.626;2022-12-29T15:59:57;12.20;1.00
18434;DHT22;9344;52.294;13.626;2022-12-29T16:02:25;12.10;1.00
18434;DHT22;9344;52.294;13.626;2022-12-29T16:04:53;12.10;1.00
18434;DHT22;9344;52.294;13.626;2022-12-29T16:07:25;12.10;1.00
18434;DHT22;9344;52.294;13.626;2022-12-29T16:09:55;12.00;1.00